createdAt,value
2018-02-27T00:00:57.414Z,102781.66
2018-02-27T00:02:02.238Z,102785.64
2018-02-27T00:03:07.093Z,102784.20
2018-02-27T00:04:13.318Z,102783.21
2018-02-27T00:05:18.431Z,102780.14
2018-02-27T00:06:23.699Z,102780.99
2018-02-27T00:07:28.720Z,102778.66
2018-02-27T00:08:34.013Z,102778.59
2018-02-27T00:09:38.950Z,102773.77
2018-02-27T00:10:43.948Z,102778.12
2018-02-27T00:11:49.231Z,102778.41
2018-02-27T00:12:54.178Z,102777.98
2018-02-27T00:13:59.146Z,102773.86
2018-02-27T00:15:07.200Z,102773.15
2018-02-27T00:16:12.179Z,102766.35
2018-02-27T00:17:17.513Z,102765.25
2018-02-27T00:18:22.629Z,102766.06
2018-02-27T00:19:27.664Z,102771.72
2018-02-27T00:20:32.629Z,102772.14
2018-02-27T00:21:37.842Z,102775.75
2018-02-27T00:22:43.240Z,102770.02
2018-02-27T00:23:48.868Z,102766.58
2018-02-27T00:24:53.868Z,102768.52
2018-02-27T00:25:58.996Z,102767.91
2018-02-27T00:27:04.054Z,102772.86
2018-02-27T00:28:09.052Z,102769.47
2018-02-27T00:29:13.779Z,102771.31
2018-02-27T00:30:19.086Z,102766.21
2018-02-27T00:31:23.966Z,102761.41
2018-02-27T00:32:28.880Z,102757.41
2018-02-27T00:33:33.889Z,102759.88
2018-02-27T00:34:38.999Z,102765.27
2018-02-27T00:35:44.148Z,102765.64
2018-02-27T00:36:49.737Z,102766.58
2018-02-27T00:37:55.095Z,102757.92
2018-02-27T00:39:01.189Z,102762.25
2018-02-27T00:40:06.741Z,102757.31
2018-02-27T00:41:11.844Z,102763.50
2018-02-27T00:42:17.090Z,102762.25
2018-02-27T00:43:22.219Z,102756.61
2018-02-27T00:44:27.357Z,102758.04
2018-02-27T00:45:32.970Z,102756.14
2018-02-27T00:46:38.123Z,102758.89
2018-02-27T00:47:43.464Z,102751.03
2018-02-27T00:48:48.621Z,102757.36
2018-02-27T00:49:53.579Z,102750.78
2018-02-27T00:50:58.705Z,102757.12
2018-02-27T00:52:03.797Z,102749.95
2018-02-27T00:53:08.627Z,102755.03
2018-02-27T00:54:14.807Z,102756.61
2018-02-27T00:55:19.867Z,102748.78
2018-02-27T00:56:25.047Z,102754.14
2018-02-27T00:57:30.097Z,102748.78
2018-02-27T00:58:35.871Z,102753.75
2018-02-27T00:59:40.836Z,102749.63
2018-02-27T01:00:46.821Z,102748.25
2018-02-27T01:01:53.442Z,102741.00
2018-02-27T01:02:58.718Z,102738.94
2018-02-27T01:04:03.548Z,102744.52
2018-02-27T01:05:08.415Z,102744.82
2018-02-27T01:06:14.385Z,102739.80
2018-02-27T01:07:20.937Z,102734.67
2018-02-27T01:08:25.810Z,102738.95
2018-02-27T01:09:31.323Z,102737.88
2018-02-27T01:10:36.318Z,102725.20
2018-02-27T01:11:42.061Z,102727.12
2018-02-27T01:12:48.161Z,102733.77
2018-02-27T01:13:55.054Z,102723.98
2018-02-27T01:15:00.910Z,102721.31
2018-02-27T01:16:06.264Z,102724.69
2018-02-27T01:17:11.468Z,102724.53
2018-02-27T01:18:16.542Z,102722.34
2018-02-27T01:19:22.164Z,102730.72
2018-02-27T01:20:27.621Z,102725.48
2018-02-27T01:21:32.641Z,102726.23
2018-02-27T01:22:37.498Z,102726.84
2018-02-27T01:23:42.599Z,102733.29
2018-02-27T01:24:47.401Z,102726.66
2018-02-27T01:25:52.348Z,102723.26
2018-02-27T01:26:57.635Z,102724.16
2018-02-27T01:28:02.697Z,102719.02
2018-02-27T01:29:07.782Z,102715.41
2018-02-27T01:30:15.206Z,102714.67
2018-02-27T01:31:19.962Z,102712.05
2018-02-27T01:32:25.162Z,102713.28
2018-02-27T01:33:30.160Z,102713.55
2018-02-27T01:34:36.236Z,102712.05
2018-02-27T01:35:41.570Z,102717.91
2018-02-27T01:36:46.735Z,102714.75
2018-02-27T01:37:51.909Z,102715.33
2018-02-27T01:38:57.054Z,102715.78
2018-02-27T01:40:02.563Z,102719.14
2018-02-27T01:41:07.617Z,102719.04
2018-02-27T01:42:12.572Z,102713.28
2018-02-27T01:43:17.634Z,102716.13
2018-02-27T01:44:22.784Z,102713.98
2018-02-27T01:45:29.034Z,102714.11
2018-02-27T01:46:34.227Z,102707.20
2018-02-27T01:47:39.419Z,102711.05
2018-02-27T01:48:44.302Z,102708.70
2018-02-27T01:49:49.536Z,102707.50
2018-02-27T01:51:03.206Z,102705.84
2018-02-27T01:52:08.275Z,102706.59
2018-02-27T01:53:14.677Z,102709.11
2018-02-27T01:54:19.679Z,102710.00
2018-02-27T01:55:24.604Z,102699.32
2018-02-27T01:56:29.536Z,102699.02
2018-02-27T01:57:34.658Z,102699.56
2018-02-27T01:58:39.833Z,102700.78
2018-02-27T01:59:44.923Z,102690.89
2018-02-27T02:00:50.158Z,102685.82
2018-02-27T02:01:55.645Z,102686.05
2018-02-27T02:03:00.910Z,102689.72
2018-02-27T02:04:05.894Z,102689.72
2018-02-27T02:05:11.295Z,102694.61
2018-02-27T02:06:16.953Z,102689.72
2018-02-27T02:07:22.575Z,102684.72
2018-02-27T02:08:27.909Z,102685.80
2018-02-27T02:09:33.092Z,102692.39
2018-02-27T02:10:38.522Z,102685.12
2018-02-27T02:11:44.343Z,102682.30
2018-02-27T02:12:49.274Z,102677.85
2018-02-27T02:13:54.692Z,102677.82
2018-02-27T02:14:59.850Z,102675.90
2018-02-27T02:16:05.288Z,102678.55
2018-02-27T02:17:10.164Z,102679.17
2018-02-27T02:18:15.332Z,102676.61
2018-02-27T02:19:20.534Z,102672.97
2018-02-27T02:20:27.365Z,102670.86
2018-02-27T02:21:32.266Z,102675.16
2018-02-27T02:22:37.544Z,102669.55
2018-02-27T02:23:43.898Z,102666.08
2018-02-27T02:24:49.567Z,102665.14
2018-02-27T02:25:54.604Z,102668.52
2018-02-27T02:26:59.758Z,102665.83
2018-02-27T02:28:04.438Z,102662.58
2018-02-27T02:29:09.448Z,102667.47
2018-02-27T02:30:16.282Z,102662.25
2018-02-27T02:31:20.782Z,102652.59
2018-02-27T02:32:25.494Z,102655.41
2018-02-27T02:33:30.334Z,102649.94
2018-02-27T02:34:35.212Z,102650.31
2018-02-27T02:35:40.223Z,102648.47
2018-02-27T02:36:45.582Z,102644.42
2018-02-27T02:37:51.195Z,102647.63
2018-02-27T02:38:56.427Z,102646.81
2018-02-27T02:40:01.482Z,102648.93
2018-02-27T02:41:06.305Z,102649.59
2018-02-27T02:42:20.240Z,102643.76
2018-02-27T02:43:25.343Z,102648.54
2018-02-27T02:44:30.213Z,102643.52
2018-02-27T02:45:35.776Z,102652.44
2018-02-27T02:46:40.731Z,102649.75
2018-02-27T02:47:45.678Z,102641.95
2018-02-27T02:48:50.464Z,102639.59
2018-02-27T02:49:55.572Z,102644.70
2018-02-27T02:51:00.539Z,102640.56
2018-02-27T02:52:05.815Z,102635.27
2018-02-27T02:53:10.303Z,102641.23
2018-02-27T02:54:15.193Z,102642.08
2018-02-27T02:55:20.273Z,102642.05
2018-02-27T02:56:25.451Z,102641.86
2018-02-27T02:57:31.338Z,102639.11
2018-02-27T02:58:36.139Z,102641.78
2018-02-27T02:59:41.620Z,102644.44
2018-02-27T03:00:46.834Z,102652.50
2018-02-27T03:01:52.886Z,102641.67
2018-02-27T03:02:58.318Z,102641.81
2018-02-27T03:04:03.517Z,102633.00
2018-02-27T03:05:07.929Z,102639.86
2018-02-27T03:06:12.703Z,102635.48
2018-02-27T03:07:17.215Z,102640.55
2018-02-27T03:08:21.816Z,102634.38
2018-02-27T03:09:26.310Z,102640.79
2018-02-27T03:10:31.022Z,102647.33
2018-02-27T03:11:35.811Z,102642.94
2018-02-27T03:12:40.890Z,102639.34
2018-02-27T03:13:46.207Z,102646.60
2018-02-27T03:14:50.930Z,102638.91
2018-02-27T03:15:55.841Z,102643.31
2018-02-27T03:17:00.474Z,102641.38
2018-02-27T03:18:05.058Z,102646.38
2018-02-27T03:19:09.616Z,102641.59
2018-02-27T03:20:14.921Z,102642.08
2018-02-27T03:21:19.787Z,102642.57
2018-02-27T03:22:24.828Z,102640.89
2018-02-27T03:23:29.997Z,102637.90
2018-02-27T03:24:35.476Z,102634.63
2018-02-27T03:25:40.296Z,102624.14
2018-02-27T03:26:45.313Z,102622.66
2018-02-27T03:27:49.981Z,102622.97
2018-02-27T03:28:54.508Z,102623.69
2018-02-27T03:29:59.287Z,102622.65
2018-02-27T03:31:04.316Z,102617.04
2018-02-27T03:32:09.990Z,102614.25
2018-02-27T03:33:14.680Z,102615.23
2018-02-27T03:34:19.924Z,102614.52
2018-02-27T03:35:24.936Z,102607.64
2018-02-27T03:36:30.560Z,102615.76
2018-02-27T03:37:35.000Z,102614.67
2018-02-27T03:38:39.786Z,102613.86
2018-02-27T03:39:44.807Z,102617.36
2018-02-27T03:40:49.524Z,102610.61
2018-02-27T03:41:54.186Z,102616.27
2018-02-27T03:42:59.028Z,102614.84
2018-02-27T03:44:03.949Z,102615.34
2018-02-27T03:45:08.722Z,102612.73
2018-02-27T03:46:13.353Z,102618.84
2018-02-27T03:47:18.085Z,102615.39
2018-02-27T03:48:22.570Z,102613.05
2018-02-27T03:49:27.440Z,102617.34
2018-02-27T03:50:32.456Z,102606.73
2018-02-27T03:51:36.923Z,102605.00
2018-02-27T03:52:41.451Z,102604.75
2018-02-27T03:53:46.078Z,102609.17
2018-02-27T03:54:50.740Z,102607.16
2018-02-27T03:55:55.369Z,102601.16
2018-02-27T03:57:00.034Z,102607.72
2018-02-27T03:58:04.793Z,102606.84
2018-02-27T03:59:09.698Z,102606.23
2018-02-27T04:00:16.530Z,102595.95
2018-02-27T04:01:22.448Z,102595.98
2018-02-27T04:02:27.962Z,102593.11
2018-02-27T04:03:33.710Z,102599.76
2018-02-27T04:04:38.324Z,102596.37
2018-02-27T04:05:43.193Z,102597.97
2018-02-27T04:06:47.901Z,102599.13
2018-02-27T04:07:52.556Z,102601.12
2018-02-27T04:08:57.136Z,102598.45
2018-02-27T04:10:01.672Z,102600.48
2018-02-27T04:11:06.233Z,102602.06
2018-02-27T04:12:11.090Z,102599.14
2018-02-27T04:13:15.931Z,102591.83
2018-02-27T04:14:20.659Z,102593.17
2018-02-27T04:15:25.766Z,102600.97
2018-02-27T04:16:31.449Z,102596.70
2018-02-27T04:17:36.368Z,102595.11
2018-02-27T04:18:41.457Z,102595.51
2018-02-27T04:19:46.158Z,102599.92
2018-02-27T04:20:51.142Z,102593.34
2018-02-27T04:21:55.830Z,102593.48
2018-02-27T04:23:00.532Z,102601.39
2018-02-27T04:24:05.214Z,102592.77
2018-02-27T04:26:10.408Z,102598.11
2018-02-27T04:27:15.120Z,102595.41
2018-02-27T04:28:19.524Z,102594.19
2018-02-27T04:29:24.769Z,102588.79
2018-02-27T04:30:29.328Z,102602.92
2018-02-27T04:31:35.832Z,102596.00
2018-02-27T04:32:40.350Z,102595.52
2018-02-27T04:33:45.195Z,102591.54
2018-02-27T04:34:50.043Z,102596.00
2018-02-27T04:35:55.398Z,102597.96
2018-02-27T04:36:59.861Z,102591.99
2018-02-27T04:38:04.237Z,102591.16
2018-02-27T04:39:08.892Z,102590.83
2018-02-27T04:40:13.634Z,102592.14
2018-02-27T04:41:18.547Z,102597.29
2018-02-27T04:42:22.971Z,102597.38
2018-02-27T04:43:27.967Z,102589.81
2018-02-27T04:44:33.400Z,102597.23
2018-02-27T04:45:39.134Z,102601.11
2018-02-27T04:46:45.545Z,102589.33
2018-02-27T04:47:50.924Z,102594.83
2018-02-27T04:48:55.409Z,102591.94
2018-02-27T04:49:59.737Z,102598.67
2018-02-27T04:51:04.557Z,102591.97
2018-02-27T04:52:09.343Z,102593.46
2018-02-27T04:53:14.065Z,102590.39
2018-02-27T04:54:18.593Z,102589.52
2018-02-27T04:55:24.108Z,102587.38
2018-02-27T04:56:28.626Z,102592.89
2018-02-27T04:57:33.155Z,102593.77
2018-02-27T04:58:38.844Z,102595.50
2018-02-27T04:59:45.120Z,102587.59
2018-02-27T05:00:49.666Z,102589.71
2018-02-27T05:01:54.480Z,102597.16
2018-02-27T05:02:59.227Z,102594.28
2018-02-27T05:04:03.943Z,102595.81
2018-02-27T05:05:09.072Z,102592.53
2018-02-27T05:06:14.071Z,102587.77
2018-02-27T05:07:18.724Z,102603.41
2018-02-27T05:08:23.427Z,102601.69
2018-02-27T05:09:27.949Z,102593.54
2018-02-27T05:10:32.852Z,102600.04
2018-02-27T05:11:37.552Z,102599.84
2018-02-27T05:12:42.147Z,102596.66
2018-02-27T05:13:47.502Z,102595.89
2018-02-27T05:14:52.883Z,102591.05
2018-02-27T05:15:57.702Z,102591.09
2018-02-27T05:17:03.521Z,102599.33
2018-02-27T05:18:08.520Z,102596.34
2018-02-27T05:19:13.168Z,102600.89
2018-02-27T05:20:18.009Z,102586.13
2018-02-27T05:21:22.919Z,102594.14
2018-02-27T05:22:27.704Z,102593.88
2018-02-27T05:23:33.189Z,102603.16
2018-02-27T05:24:37.830Z,102594.02
2018-02-27T05:25:43.440Z,102590.93
2018-02-27T05:26:49.318Z,102592.69
2018-02-27T05:27:55.461Z,102591.83
2018-02-27T05:29:00.393Z,102592.84
2018-02-27T05:30:07.028Z,102592.98
2018-02-27T05:31:12.291Z,102590.31
2018-02-27T05:32:17.384Z,102586.20
2018-02-27T05:33:22.520Z,102590.94
2018-02-27T05:34:27.623Z,102581.89
2018-02-27T05:35:32.679Z,102581.38
2018-02-27T05:36:37.738Z,102572.30
2018-02-27T05:37:42.337Z,102568.55
2018-02-27T05:38:47.706Z,102568.20
2018-02-27T05:39:52.438Z,102568.40
2018-02-27T05:40:57.507Z,102568.09
2018-02-27T05:42:02.385Z,102572.44
2018-02-27T05:43:07.153Z,102571.50
2018-02-27T05:44:12.298Z,102567.88
2018-02-27T05:45:17.949Z,102565.27
2018-02-27T05:46:23.087Z,102565.16
2018-02-27T05:47:28.295Z,102569.45
2018-02-27T05:48:33.713Z,102567.50
2018-02-27T05:49:38.893Z,102572.88
2018-02-27T05:50:43.938Z,102574.89
2018-02-27T05:51:48.845Z,102565.64
2018-02-27T05:52:53.789Z,102570.83
2018-02-27T05:53:59.086Z,102573.96
2018-02-27T05:55:04.113Z,102569.92
2018-02-27T05:56:09.178Z,102586.66
2018-02-27T05:57:14.081Z,102583.39
2018-02-27T05:58:19.193Z,102585.44
2018-02-27T05:59:24.123Z,102582.94
2018-02-27T06:00:30.340Z,102582.42
2018-02-27T06:01:35.660Z,102577.22
2018-02-27T06:02:40.653Z,102582.27
2018-02-27T06:03:46.878Z,102582.44
2018-02-27T06:04:51.861Z,102585.53
2018-02-27T06:05:56.796Z,102579.80
2018-02-27T06:07:02.173Z,102583.78
2018-02-27T06:08:07.202Z,102576.73
2018-02-27T06:09:12.296Z,102578.20
2018-02-27T06:10:17.360Z,102578.00
2018-02-27T06:11:22.665Z,102575.61
2018-02-27T06:12:27.994Z,102580.17
2018-02-27T06:13:33.213Z,102577.02
2018-02-27T06:14:38.364Z,102576.97
2018-02-27T06:15:44.239Z,102581.30
2018-02-27T06:16:49.409Z,102579.77
2018-02-27T06:17:54.582Z,102577.42
2018-02-27T06:18:59.835Z,102576.13
2018-02-27T06:20:04.971Z,102573.76
2018-02-27T06:21:10.135Z,102571.50
2018-02-27T06:22:14.999Z,102578.33
2018-02-27T06:23:19.944Z,102568.41
2018-02-27T06:24:25.131Z,102573.70
2018-02-27T06:25:30.573Z,102574.78
2018-02-27T06:26:35.763Z,102568.85
2018-02-27T06:27:40.825Z,102570.44
2018-02-27T06:28:46.296Z,102571.69
2018-02-27T06:29:51.260Z,102571.34
2018-02-27T06:30:57.158Z,102581.50
2018-02-27T06:32:02.129Z,102570.90
2018-02-27T06:33:07.263Z,102576.41
2018-02-27T06:34:12.151Z,102581.45
2018-02-27T06:35:19.891Z,102579.95
2018-02-27T06:36:24.889Z,102584.63
2018-02-27T06:37:30.229Z,102578.73
2018-02-27T06:38:35.704Z,102577.52
2018-02-27T06:39:41.731Z,102574.76
2018-02-27T06:40:46.847Z,102574.83
2018-02-27T06:41:51.789Z,102570.27
2018-02-27T06:42:56.755Z,102572.09
2018-02-27T06:44:01.598Z,102578.82
2018-02-27T06:45:08.843Z,102575.94
2018-02-27T06:46:13.783Z,102578.69
2018-02-27T06:47:18.800Z,102572.59
2018-02-27T06:48:23.843Z,102579.45
2018-02-27T06:49:28.722Z,102581.30
2018-02-27T06:50:33.968Z,102570.59
2018-02-27T06:51:39.171Z,102568.67
2018-02-27T06:52:44.304Z,102569.66
2018-02-27T06:53:49.243Z,102568.77
2018-02-27T06:54:54.136Z,102565.78
2018-02-27T06:55:59.284Z,102562.98
2018-02-27T06:57:04.537Z,102565.45
2018-02-27T06:58:09.412Z,102568.48
2018-02-27T06:59:14.423Z,102562.16
2018-02-27T07:00:21.028Z,102561.55
2018-02-27T07:01:25.947Z,102571.10
2018-02-27T07:02:31.186Z,102566.36
2018-02-27T07:03:36.806Z,102564.09
2018-02-27T07:04:41.819Z,102562.83
2018-02-27T07:05:46.815Z,102562.08
2018-02-27T07:06:51.731Z,102558.97
2018-02-27T07:07:56.660Z,102557.12
2018-02-27T07:09:01.643Z,102559.02
2018-02-27T07:10:06.341Z,102556.05
2018-02-27T07:11:11.320Z,102561.11
2018-02-27T07:12:16.317Z,102557.42
2018-02-27T07:13:21.935Z,102550.70
2018-02-27T07:14:27.120Z,102552.91
2018-02-27T07:15:32.624Z,102552.39
2018-02-27T07:16:38.208Z,102552.27
2018-02-27T07:17:43.265Z,102547.01
2018-02-27T07:18:48.229Z,102557.32
2018-02-27T07:19:53.099Z,102550.62
2018-02-27T07:20:58.095Z,102550.23
2018-02-27T07:22:03.665Z,102552.73
2018-02-27T07:23:08.734Z,102551.02
2018-02-27T07:24:13.684Z,102545.56
2018-02-27T07:25:18.558Z,102547.83
2018-02-27T07:26:23.325Z,102549.41
2018-02-27T07:27:28.415Z,102553.58
2018-02-27T07:28:34.081Z,102551.74
2018-02-27T07:29:39.413Z,102552.23
2018-02-27T07:30:44.364Z,102553.47
2018-02-27T07:31:49.225Z,102556.14
2018-02-27T07:32:54.151Z,102555.02
2018-02-27T07:33:58.904Z,102558.25
2018-02-27T07:35:04.135Z,102558.82
2018-02-27T07:36:09.138Z,102558.28
2018-02-27T07:37:14.005Z,102554.98
2018-02-27T07:38:18.963Z,102559.27
2018-02-27T07:39:23.909Z,102556.24
2018-02-27T07:40:28.871Z,102545.52
2018-02-27T07:41:35.257Z,102550.44
2018-02-27T07:42:40.291Z,102549.13
2018-02-27T07:43:45.377Z,102549.46
2018-02-27T07:44:50.892Z,102549.09
2018-02-27T07:45:57.390Z,102544.77
2018-02-27T07:47:02.231Z,102543.39
2018-02-27T07:48:07.552Z,102548.31
2018-02-27T07:49:12.565Z,102540.50
2018-02-27T07:50:17.471Z,102548.02
2018-02-27T07:51:22.322Z,102545.58
2018-02-27T07:52:27.141Z,102543.11
2018-02-27T07:53:32.892Z,102544.67
2018-02-27T07:54:37.881Z,102537.88
2018-02-27T07:55:42.653Z,102548.63
2018-02-27T07:56:48.587Z,102546.05
2018-02-27T07:57:53.616Z,102548.67
2018-02-27T07:58:58.557Z,102546.34
2018-02-27T08:00:05.910Z,102547.31
2018-02-27T08:01:11.093Z,102543.22
2018-02-27T08:02:15.881Z,102540.36
2018-02-27T08:03:20.708Z,102537.88
2018-02-27T08:04:25.562Z,102540.98
2018-02-27T08:05:30.441Z,102540.78
2018-02-27T08:06:35.828Z,102544.91
2018-02-27T08:07:41.085Z,102543.26
2018-02-27T08:08:46.048Z,102543.25
2018-02-27T08:09:51.886Z,102543.86
2018-02-27T08:10:57.465Z,102548.20
2018-02-27T08:12:02.454Z,102551.24
2018-02-27T08:13:07.204Z,102546.80
2018-02-27T08:14:12.046Z,102547.36
2018-02-27T08:15:17.422Z,102538.91
2018-02-27T08:16:22.264Z,102546.27
2018-02-27T08:17:27.066Z,102539.17
2018-02-27T08:18:32.113Z,102548.85
2018-02-27T08:19:37.191Z,102541.95
2018-02-27T08:20:42.085Z,102536.56
2018-02-27T08:21:47.868Z,102539.63
2018-02-27T08:22:53.154Z,102543.67
2018-02-27T08:23:57.888Z,102547.98
2018-02-27T08:25:02.965Z,102537.00
2018-02-27T08:26:07.898Z,102538.99
2018-02-27T08:27:12.731Z,102545.09
2018-02-27T08:28:17.908Z,102540.47
2018-02-27T08:29:23.244Z,102542.67
2018-02-27T08:30:28.562Z,102546.16
2018-02-27T08:31:33.791Z,102542.57
2018-02-27T08:32:38.755Z,102535.35
2018-02-27T08:33:44.508Z,102538.52
2018-02-27T08:34:49.847Z,102541.37
2018-02-27T08:35:55.184Z,102541.46
2018-02-27T08:37:00.002Z,102536.81
2018-02-27T08:38:04.707Z,102534.57
2018-02-27T08:39:09.547Z,102533.09
2018-02-27T08:40:14.558Z,102535.59
2018-02-27T08:41:19.322Z,102535.94
2018-02-27T08:42:24.468Z,102533.62
2018-02-27T08:43:29.354Z,102529.95
2018-02-27T08:44:34.407Z,102532.13
2018-02-27T08:45:39.824Z,102530.44
2018-02-27T08:46:45.384Z,102528.19
2018-02-27T08:47:50.491Z,102532.47
2018-02-27T08:48:55.330Z,102534.31
2018-02-27T08:50:00.237Z,102528.34
2018-02-27T08:51:05.091Z,102520.58
2018-02-27T08:52:10.000Z,102518.23
2018-02-27T08:54:21.796Z,102529.25
2018-02-27T08:55:27.253Z,102528.53
2018-02-27T08:56:32.198Z,102528.30
2018-02-27T08:57:37.092Z,102525.76
2018-02-27T08:58:41.871Z,102523.24
2018-02-27T08:59:46.918Z,102524.52
2018-02-27T09:00:52.529Z,102525.17
2018-02-27T09:01:57.591Z,102518.63
2018-02-27T09:03:02.547Z,102524.97
2018-02-27T09:04:07.302Z,102513.66
2018-02-27T09:05:12.191Z,102519.80
2018-02-27T09:06:17.127Z,102511.24
2018-02-27T09:07:21.907Z,102513.41
2018-02-27T09:08:26.745Z,102516.92
2018-02-27T09:09:31.871Z,102519.38
2018-02-27T09:10:36.872Z,102512.26
2018-02-27T09:11:41.724Z,102509.50
2018-02-27T09:12:46.890Z,102507.47
2018-02-27T09:13:52.326Z,102509.19
2018-02-27T09:14:57.908Z,102508.76
2018-02-27T09:16:02.950Z,102507.66
2018-02-27T09:17:07.958Z,102504.27
2018-02-27T09:18:12.942Z,102502.97
2018-02-27T09:19:17.768Z,102503.44
2018-02-27T09:20:22.824Z,102494.08
2018-02-27T09:21:27.742Z,102496.14
2018-02-27T09:22:32.736Z,102497.19
2018-02-27T09:23:37.972Z,102498.63
2018-02-27T09:24:42.722Z,102493.11
2018-02-27T09:25:48.085Z,102492.97
2018-02-27T09:26:52.900Z,102489.86
2018-02-27T09:27:57.996Z,102494.21
2018-02-27T09:29:02.895Z,102490.05
2018-02-27T09:30:09.678Z,102491.17
2018-02-27T09:31:15.053Z,102490.87
2018-02-27T09:32:19.747Z,102488.51
2018-02-27T09:33:24.541Z,102483.70
2018-02-27T09:34:29.304Z,102486.59
2018-02-27T09:35:34.173Z,102482.86
2018-02-27T09:36:39.459Z,102477.39
2018-02-27T09:37:44.188Z,102488.28
2018-02-27T09:38:50.118Z,102486.94
2018-02-27T09:39:54.655Z,102481.25
2018-02-27T09:40:59.188Z,102488.61
2018-02-27T09:42:04.015Z,102480.89
2018-02-27T09:43:08.878Z,102487.84
2018-02-27T09:44:13.703Z,102488.75
2018-02-27T09:45:18.859Z,102484.09
2018-02-27T09:46:23.765Z,102477.89
2018-02-27T09:47:28.550Z,102483.30
2018-02-27T09:48:33.491Z,102473.66
2018-02-27T09:49:38.731Z,102479.34
2018-02-27T09:50:43.862Z,102476.89
2018-02-27T09:51:48.630Z,102478.26
2018-02-27T09:52:53.411Z,102478.92
2018-02-27T09:53:58.318Z,102473.20
2018-02-27T09:55:03.280Z,102472.03
2018-02-27T09:56:08.041Z,102469.58
2018-02-27T09:57:12.851Z,102464.52
2018-02-27T09:58:17.667Z,102469.73
2018-02-27T09:59:22.486Z,102473.22
2018-02-27T10:00:27.973Z,102468.90
2018-02-27T10:01:33.001Z,102463.11
2018-02-27T10:02:37.770Z,102464.16
2018-02-27T10:03:42.611Z,102470.03
2018-02-27T10:04:48.757Z,102463.91
2018-02-27T10:05:53.966Z,102465.20
2018-02-27T10:06:58.687Z,102465.43
2018-02-27T10:08:03.741Z,102463.91
2018-02-27T10:09:08.539Z,102461.92
2018-02-27T10:10:13.280Z,102454.07
2018-02-27T10:11:18.179Z,102460.05
2018-02-27T10:12:22.837Z,102456.84
2018-02-27T10:13:27.734Z,102455.38
2018-02-27T10:14:32.353Z,102456.03
2018-02-27T10:15:38.390Z,102458.69
2018-02-27T10:16:43.274Z,102452.17
2018-02-27T10:17:48.179Z,102451.72
2018-02-27T10:18:52.999Z,102449.73
2018-02-27T10:19:57.584Z,102454.91
2018-02-27T10:21:03.622Z,102454.16
2018-02-27T10:22:08.381Z,102459.13
2018-02-27T10:23:13.090Z,102446.05
2018-02-27T10:24:17.817Z,102451.30
2018-02-27T10:25:22.589Z,102448.48
2018-02-27T10:26:27.427Z,102452.14
2018-02-27T10:27:32.534Z,102443.34
2018-02-27T10:28:37.567Z,102444.46
2018-02-27T10:29:42.279Z,102446.27
2018-02-27T10:30:47.333Z,102443.63
2018-02-27T10:31:52.101Z,102449.52
2018-02-27T10:32:56.839Z,102435.81
2018-02-27T10:34:01.628Z,102440.27
2018-02-27T10:35:06.449Z,102433.91
2018-02-27T10:36:11.191Z,102454.83
2018-02-27T10:37:15.882Z,102440.42
2018-02-27T10:38:20.794Z,102448.34
2018-02-27T10:39:25.759Z,102442.56
2018-02-27T10:40:30.450Z,102445.16
2018-02-27T10:41:36.445Z,102445.69
2018-02-27T10:42:41.263Z,102437.56
2018-02-27T10:43:46.778Z,102431.83
2018-02-27T10:44:52.024Z,102429.02
2018-02-27T10:45:57.781Z,102432.08
2018-02-27T10:47:02.683Z,102435.55
2018-02-27T10:48:07.451Z,102424.39
2018-02-27T10:49:12.207Z,102426.89
2018-02-27T10:50:17.029Z,102423.48
2018-02-27T10:51:21.792Z,102424.00
2018-02-27T10:52:26.934Z,102419.91
2018-02-27T10:53:31.759Z,102420.48
2018-02-27T10:54:37.003Z,102420.16
2018-02-27T10:55:41.991Z,102413.28
2018-02-27T10:56:46.760Z,102423.50
2018-02-27T10:57:51.590Z,102420.55
2018-02-27T10:58:56.556Z,102422.16
2018-02-27T11:00:01.368Z,102421.25
2018-02-27T11:01:10.993Z,102422.88
2018-02-27T11:02:16.137Z,102421.62
2018-02-27T11:03:21.180Z,102426.82
2018-02-27T11:04:26.446Z,102422.19
2018-02-27T11:05:31.259Z,102415.63
2018-02-27T11:06:36.460Z,102415.69
2018-02-27T11:07:41.270Z,102410.56
2018-02-27T11:08:46.512Z,102406.28
2018-02-27T11:09:51.566Z,102405.14
2018-02-27T11:10:56.671Z,102400.88
2018-02-27T11:12:01.953Z,102400.61
2018-02-27T11:13:06.707Z,102403.05
2018-02-27T11:14:11.471Z,102403.52
2018-02-27T11:15:18.034Z,102399.03
2018-02-27T11:16:22.792Z,102403.11
2018-02-27T11:17:27.809Z,102404.08
2018-02-27T11:18:32.596Z,102394.03
2018-02-27T11:19:37.729Z,102400.60
2018-02-27T11:20:42.562Z,102397.15
2018-02-27T11:21:47.951Z,102383.14
2018-02-27T11:22:52.721Z,102386.51
2018-02-27T11:23:57.685Z,102393.23
2018-02-27T11:25:02.667Z,102390.61
2018-02-27T11:26:07.381Z,102383.29
2018-02-27T11:27:12.131Z,102383.27
2018-02-27T11:28:16.756Z,102382.44
2018-02-27T11:29:21.380Z,102382.37
2018-02-27T11:30:26.377Z,102376.22
2018-02-27T11:31:30.970Z,102379.70
2018-02-27T11:32:36.269Z,102377.02
2018-02-27T11:33:41.872Z,102370.53
2018-02-27T11:34:46.614Z,102361.90
2018-02-27T11:35:51.457Z,102365.57
2018-02-27T11:36:56.449Z,102364.81
2018-02-27T11:38:01.301Z,102373.55
2018-02-27T11:39:06.512Z,102372.77
2018-02-27T11:40:11.102Z,102369.23
2018-02-27T11:41:15.874Z,102367.34
2018-02-27T11:42:21.112Z,102369.26
2018-02-27T11:43:26.167Z,102371.31
2018-02-27T11:44:30.839Z,102374.19
2018-02-27T11:45:36.414Z,102370.22
2018-02-27T11:46:41.456Z,102365.87
2018-02-27T11:47:46.189Z,102368.09
2018-02-27T11:48:50.811Z,102373.31
2018-02-27T11:49:55.764Z,102371.63
2018-02-27T11:51:01.159Z,102366.66
2018-02-27T11:52:05.826Z,102364.27
2018-02-27T11:53:10.558Z,102360.62
2018-02-27T11:54:15.392Z,102364.47
2018-02-27T11:55:20.153Z,102367.05
2018-02-27T11:56:24.910Z,102363.10
2018-02-27T11:57:29.706Z,102365.06
2018-02-27T11:58:34.424Z,102361.62
2018-02-27T11:59:39.481Z,102359.78
2018-02-27T12:00:44.479Z,102348.05
2018-02-27T12:01:49.560Z,102358.14
2018-02-27T12:02:54.251Z,102357.48
2018-02-27T12:03:59.007Z,102358.64
2018-02-27T12:05:05.001Z,102353.44
2018-02-27T12:06:09.669Z,102345.30
2018-02-27T12:08:43.945Z,102350.55
2018-02-27T12:09:48.686Z,102349.19
2018-02-27T12:10:53.983Z,102348.80
2018-02-27T12:11:58.747Z,102350.57
2018-02-27T12:13:03.724Z,102346.82
2018-02-27T12:14:08.481Z,102343.78
2018-02-27T12:15:16.115Z,102349.04
2018-02-27T12:16:20.844Z,102341.30
2018-02-27T12:17:25.688Z,102341.50
2018-02-27T12:18:30.394Z,102344.29
2018-02-27T12:19:35.120Z,102347.72
2018-02-27T12:20:40.769Z,102344.86
2018-02-27T12:21:45.823Z,102341.91
2018-02-27T12:22:50.616Z,102333.47
2018-02-27T12:23:55.492Z,102348.57
2018-02-27T12:25:00.297Z,102337.49
2018-02-27T12:26:05.683Z,102334.87
2018-02-27T12:27:10.765Z,102336.81